createdAt,value
2023-01-03T00:02:01.735Z,5.00
2023-01-03T00:07:06.805Z,5.10
2023-01-03T00:12:30.425Z,4.82
2023-01-03T00:17:34.701Z,4.18
2023-01-03T00:22:39.721Z,4.97
2023-01-03T00:27:43.449Z,5.05
2023-01-03T00:32:47.230Z,5.18
2023-01-03T00:37:52.313Z,4.90
2023-01-03T00:43:12.808Z,4.97
2023-01-03T00:48:16.501Z,4.68
2023-01-03T00:53:21.901Z,5.07
2023-01-03T00:58:25.654Z,4.45
2023-01-03T01:03:29.546Z,4.68
2023-01-03T01:08:34.832Z,5.28
2023-01-03T01:13:39.322Z,5.10
2023-01-03T01:18:46.610Z,4.45
2023-01-03T01:23:53.240Z,5.03
2023-01-03T01:28:57.119Z,5.20
2023-01-03T01:34:01.169Z,4.68
2023-01-03T01:39:08.414Z,4.53
2023-01-03T01:44:48.083Z,4.57
2023-01-03T01:50:01.211Z,5.20
2023-01-03T01:55:10.960Z,4.32
2023-01-03T02:00:15.356Z,5.13
2023-01-03T02:05:22.322Z,4.57
2023-01-03T02:10:51.951Z,4.50
2023-01-03T02:16:28.445Z,4.50
2023-01-03T02:22:11.684Z,4.30
2023-01-03T02:27:39.027Z,4.85
2023-01-03T02:32:48.323Z,5.38
2023-01-03T02:37:58.372Z,4.57
2023-01-03T02:43:08.747Z,5.15
2023-01-03T02:48:16.881Z,5.93
2023-01-03T02:53:25.834Z,4.82
2023-01-03T02:58:35.238Z,4.85
2023-01-03T03:03:41.773Z,4.57
2023-01-03T03:08:47.013Z,4.53
2023-01-03T03:13:55.845Z,4.35
2023-01-03T03:19:03.142Z,4.78
2023-01-03T03:24:30.575Z,4.40
2023-01-03T03:29:35.217Z,4.05
2023-01-03T03:34:41.908Z,4.72
2023-01-03T03:40:05.140Z,3.67
2023-01-03T03:45:14.781Z,3.90
2023-01-03T03:50:25.309Z,4.55
2023-01-03T03:55:34.927Z,3.80
2023-01-03T04:00:42.081Z,4.15
2023-01-03T04:05:53.766Z,3.92
2023-01-03T04:11:05.812Z,4.15
2023-01-03T04:16:09.748Z,4.22
2023-01-03T04:21:20.441Z,3.50
2023-01-03T04:26:24.612Z,4.20
2023-01-03T04:31:29.142Z,3.83
2023-01-03T04:36:34.212Z,3.83
2023-01-03T04:41:37.844Z,4.50
2023-01-03T04:46:44.131Z,4.72
2023-01-03T04:51:52.713Z,4.25
2023-01-03T04:56:56.391Z,3.85
2023-01-03T05:02:00.204Z,4.03
2023-01-03T05:07:05.532Z,4.13
2023-01-03T05:12:12.148Z,4.00
2023-01-03T05:17:15.781Z,3.63
2023-01-03T05:22:38.337Z,3.95
2023-01-03T05:27:42.079Z,3.22
2023-01-03T05:32:46.744Z,3.85
2023-01-03T05:37:54.221Z,4.03
2023-01-03T05:42:57.867Z,3.42
2023-01-03T05:48:01.494Z,3.42
2023-01-03T05:53:06.687Z,4.47
2023-01-03T05:58:13.584Z,4.45
2023-01-03T06:03:17.491Z,4.43
2023-01-03T06:08:22.710Z,4.85
2023-01-03T06:13:26.400Z,4.80
2023-01-03T06:18:30.013Z,5.95
2023-01-03T06:23:35.083Z,5.40
2023-01-03T06:28:38.731Z,5.53
2023-01-03T06:33:42.821Z,6.25
2023-01-03T06:38:48.084Z,6.47
2023-01-03T06:43:51.868Z,7.00
2023-01-03T06:49:12.822Z,6.55
2023-01-03T06:54:21.948Z,5.93
2023-01-03T06:59:26.097Z,7.05
2023-01-03T07:04:29.826Z,6.00
2023-01-03T07:09:34.918Z,6.13
2023-01-03T07:14:38.590Z,5.90
2023-01-03T07:19:42.373Z,6.13
2023-01-03T07:24:47.347Z,5.55
2023-01-03T07:29:51.055Z,5.90
2023-01-03T07:34:54.751Z,5.80
2023-01-03T07:39:59.842Z,6.10
2023-01-03T07:45:03.534Z,5.32
2023-01-03T07:50:07.792Z,6.47
2023-01-03T07:55:12.854Z,5.88
2023-01-03T08:00:17.538Z,6.00
2023-01-03T08:05:22.472Z,6.00
2023-01-03T08:10:44.831Z,6.07
2023-01-03T08:15:50.846Z,6.18
2023-01-03T08:20:57.150Z,5.25
2023-01-03T08:26:03.384Z,6.43
2023-01-03T08:31:10.782Z,6.90
2023-01-03T08:36:15.244Z,6.80
2023-01-03T08:41:23.611Z,7.20
2023-01-03T08:46:27.962Z,7.05
2023-01-03T08:51:31.699Z,7.18
2023-01-03T08:56:37.005Z,7.10
2023-01-03T09:01:41.563Z,7.95
2023-01-03T09:06:45.441Z,8.02
2023-01-03T09:11:50.620Z,7.80
2023-01-03T09:16:54.477Z,8.38
2023-01-03T09:21:58.261Z,7.38
2023-01-03T09:27:03.397Z,8.07
2023-01-03T09:32:07.182Z,7.57
2023-01-03T09:37:11.141Z,8.13
2023-01-03T09:42:38.743Z,7.30
2023-01-03T09:47:44.156Z,7.07
2023-01-03T09:53:14.619Z,6.78
2023-01-03T09:58:37.642Z,6.63
2023-01-03T10:03:51.992Z,6.60
2023-01-03T10:09:10.180Z,6.57
2023-01-03T10:14:26.896Z,6.57
2023-01-03T10:20:06.579Z,6.32
2023-01-03T10:25:15.214Z,5.97
2023-01-03T10:30:27.280Z,6.15
2023-01-03T10:35:33.240Z,5.97
2023-01-03T10:40:39.735Z,6.53
2023-01-03T10:45:56.099Z,6.97
2023-01-03T10:50:59.887Z,6.17
2023-01-03T10:56:04.470Z,5.28
2023-01-03T11:01:21.491Z,5.45
2023-01-03T11:06:25.708Z,4.50
2023-01-03T11:11:33.360Z,3.47
2023-01-03T11:16:38.688Z,2.85
2023-01-03T11:21:49.617Z,2.92
2023-01-03T11:27:02.851Z,4.07
2023-01-03T11:32:24.841Z,4.10
2023-01-03T11:37:38.518Z,4.18
2023-01-03T11:42:54.803Z,4.47
2023-01-03T11:48:19.515Z,3.40
2023-01-03T11:53:35.833Z,3.92
2023-01-03T11:59:08.196Z,2.70
2023-01-03T12:04:26.224Z,3.40
2023-01-03T12:09:36.508Z,3.38
2023-01-03T12:14:45.471Z,2.90
2023-01-03T12:19:57.537Z,2.63
2023-01-03T12:25:08.322Z,3.00
2023-01-03T12:30:25.937Z,2.83
2023-01-03T12:35:39.433Z,3.30
2023-01-03T12:40:53.600Z,3.25
2023-01-03T12:46:10.307Z,2.65
2023-01-03T12:51:20.981Z,2.47
2023-01-03T12:56:51.213Z,2.25
2023-01-03T13:01:59.254Z,1.98
2023-01-03T13:07:11.984Z,2.05
2023-01-03T13:12:19.754Z,1.70
2023-01-03T13:17:26.075Z,2.05
2023-01-03T13:22:52.596Z,2.10
2023-01-03T13:27:58.764Z,2.03
2023-01-03T13:33:16.886Z,1.60
2023-01-03T13:38:27.306Z,1.60
2023-01-03T13:43:39.549Z,1.73
2023-01-03T13:48:55.067Z,1.60
2023-01-03T13:54:06.750Z,1.65
2023-01-03T13:59:18.652Z,1.50
2023-01-03T14:05:03.945Z,1.83
2023-01-03T14:10:22.320Z,1.80
2023-01-03T14:15:27.578Z,1.73
2023-01-03T14:20:36.578Z,1.67
2023-01-03T14:25:44.400Z,1.92
2023-01-03T14:31:01.162Z,2.05
2023-01-03T14:36:09.309Z,1.70
2023-01-03T14:41:27.370Z,1.50
2023-01-03T14:46:32.797Z,1.63
2023-01-03T14:51:37.962Z,2.17
2023-01-03T14:56:46.784Z,1.35
2023-01-03T15:01:51.078Z,1.88
2023-01-03T15:07:03.654Z,1.58
2023-01-03T15:12:16.478Z,1.70
2023-01-03T15:17:29.722Z,1.40
2023-01-03T15:22:40.810Z,1.65
2023-01-03T15:27:47.848Z,1.73
2023-01-03T15:32:54.859Z,1.50
2023-01-03T15:38:01.337Z,1.42
2023-01-03T15:43:23.762Z,1.15
2023-01-03T15:48:28.102Z,1.90
2023-01-03T15:53:37.805Z,1.70
2023-01-03T15:58:47.907Z,1.58
2023-01-03T16:03:53.325Z,1.63
2023-01-03T16:08:57.218Z,2.03
2023-01-03T16:14:05.209Z,1.80
2023-01-03T16:19:15.619Z,2.20
2023-01-03T16:24:20.287Z,1.80
2023-01-03T16:29:25.402Z,2.00
2023-01-03T16:34:33.730Z,1.90
2023-01-03T16:39:45.723Z,2.03
2023-01-03T16:44:53.046Z,2.28
2023-01-03T16:49:58.685Z,1.85
2023-01-03T16:55:06.657Z,1.83
2023-01-03T17:00:20.360Z,1.88
2023-01-03T17:05:24.650Z,2.45
2023-01-03T17:10:32.642Z,2.15
2023-01-03T17:15:37.792Z,2.13
2023-01-03T17:20:41.624Z,1.60
2023-01-03T17:25:45.401Z,1.60
2023-01-03T17:30:56.519Z,1.55
2023-01-03T17:36:00.538Z,1.85
2023-01-03T17:41:04.439Z,1.60
2023-01-03T17:46:36.306Z,1.25
2023-01-03T17:51:40.190Z,2.00
2023-01-03T17:56:44.140Z,1.65
2023-01-03T18:01:52.219Z,1.80
2023-01-03T18:06:59.007Z,1.67
2023-01-03T18:12:02.790Z,1.30
2023-01-03T18:17:20.608Z,1.50
2023-01-03T18:22:25.480Z,1.60
2023-01-03T18:27:29.679Z,1.73
2023-01-03T18:32:35.837Z,1.92
2023-01-03T18:37:39.610Z,1.42
2023-01-03T18:43:00.961Z,1.20
2023-01-03T18:48:07.048Z,1.63
2023-01-03T18:53:17.683Z,1.40
2023-01-03T18:58:33.093Z,1.23
2023-01-03T19:03:42.524Z,1.20
2023-01-03T19:08:46.808Z,1.33
2023-01-03T19:13:54.771Z,1.30
2023-01-03T19:19:00.642Z,1.10
2023-01-03T19:24:07.813Z,1.15
2023-01-03T19:34:24.287Z,1.70
2023-01-03T19:39:32.133Z,1.52
2023-01-03T19:44:39.132Z,1.50
2023-01-03T19:49:47.255Z,1.70
2023-01-03T19:54:51.124Z,1.08
2023-01-03T19:59:57.878Z,1.60
2023-01-03T20:05:03.404Z,1.23
2023-01-03T20:10:08.503Z,0.98
2023-01-03T20:15:22.058Z,1.83
2023-01-03T20:20:32.378Z,1.25
2023-01-03T20:25:37.551Z,1.23
2023-01-03T20:30:41.383Z,1.63
2023-01-03T20:41:12.348Z,1.63
2023-01-03T20:46:23.663Z,1.23
2023-01-03T20:51:29.338Z,1.70
2023-01-03T20:56:34.006Z,1.23
2023-01-03T21:01:38.029Z,1.25
2023-01-03T21:06:45.119Z,1.50
2023-01-03T21:11:48.795Z,1.52
2023-01-03T21:16:52.579Z,1.08
2023-01-03T21:21:59.325Z,1.10
2023-01-03T21:27:02.987Z,1.23
2023-01-03T21:32:06.880Z,1.67
2023-01-03T21:37:12.077Z,1.33
2023-01-03T21:42:33.425Z,1.50
2023-01-03T21:47:37.284Z,0.98
2023-01-03T21:52:44.411Z,0.75
2023-01-03T22:03:10.125Z,1.25
2023-01-03T22:08:15.211Z,1.10
2023-01-03T22:13:18.903Z,1.00
2023-01-03T22:18:22.594Z,1.30
2023-01-03T22:23:27.709Z,1.35
2023-01-03T22:28:35.319Z,0.95
2023-01-03T22:33:39.331Z,0.73
2023-01-03T22:38:44.936Z,1.13
2023-01-03T22:43:48.800Z,1.00
2023-01-03T22:48:52.830Z,1.13
2023-01-03T22:53:58.725Z,0.88
2023-01-03T22:59:03.153Z,1.17
2023-01-03T23:04:07.614Z,0.93
2023-01-03T23:09:13.896Z,1.55
2023-01-03T23:14:18.888Z,0.83
2023-01-03T23:19:25.318Z,0.80
2023-01-03T23:24:30.452Z,1.07
2023-01-03T23:29:34.319Z,0.80
2023-01-03T23:34:37.966Z,0.85
2023-01-03T23:39:44.231Z,1.10
2023-01-03T23:44:48.079Z,1.10
2023-01-03T23:49:51.831Z,0.77
2023-01-03T23:55:01.628Z,0.90
